createdAt,value
2022-09-14T00:01:34.652Z,80.83
2022-09-14T00:04:12.397Z,80.73
2022-09-14T00:06:40.362Z,80.20
2022-09-14T00:09:08.136Z,80.16
2022-09-14T00:11:37.060Z,79.96
2022-09-14T00:14:05.700Z,79.78
2022-09-14T00:16:38.385Z,79.70
2022-09-14T00:19:13.455Z,80.22
2022-09-14T00:21:42.393Z,80.40
2022-09-14T00:24:11.979Z,79.76
2022-09-14T00:26:38.628Z,79.59
2022-09-14T00:29:06.537Z,79.92
2022-09-14T00:31:38.114Z,79.79
2022-09-14T00:34:07.837Z,80.48
2022-09-14T00:36:51.914Z,79.67
2022-09-14T00:39:21.739Z,81.15
2022-09-14T00:41:50.055Z,81.51
2022-09-14T00:44:16.561Z,81.31
2022-09-14T00:46:50.459Z,80.84
2022-09-14T00:49:38.067Z,80.91
2022-09-14T00:52:20.353Z,80.86
2022-09-14T00:54:53.342Z,81.33
2022-09-14T00:57:21.576Z,81.06
2022-09-14T00:59:52.088Z,81.21
2022-09-14T01:02:22.442Z,81.54
2022-09-14T01:04:51.117Z,81.33
2022-09-14T01:07:42.292Z,81.46
2022-09-14T01:10:28.821Z,81.56
2022-09-14T01:13:04.280Z,82.05
2022-09-14T01:15:53.371Z,82.18
2022-09-14T01:18:37.819Z,82.34
2022-09-14T01:21:15.906Z,82.41
2022-09-14T01:24:16.605Z,82.50
2022-09-14T01:27:20.148Z,83.20
2022-09-14T01:30:09.357Z,83.81
2022-09-14T01:33:08.074Z,83.77
2022-09-14T01:35:46.634Z,83.72
2022-09-14T01:38:40.178Z,84.29
2022-09-14T01:41:14.504Z,84.05
2022-09-14T01:43:58.458Z,83.88
2022-09-14T01:46:45.448Z,83.56
2022-09-14T01:49:21.490Z,83.66
2022-09-14T01:54:37.794Z,83.77
2022-09-14T01:57:29.237Z,83.94
2022-09-14T02:00:03.621Z,84.03
2022-09-14T02:02:58.912Z,84.04
2022-09-14T02:05:40.185Z,84.07
2022-09-14T02:08:06.972Z,84.17
2022-09-14T02:10:34.856Z,84.35
2022-09-14T02:13:02.217Z,84.51
2022-09-14T02:15:29.283Z,84.47
2022-09-14T02:17:56.266Z,85.16
2022-09-14T02:20:37.697Z,85.20
2022-09-14T02:23:05.489Z,84.83
2022-09-14T02:25:32.934Z,84.91
2022-09-14T02:27:59.541Z,84.88
2022-09-14T02:30:28.010Z,84.91
2022-09-14T02:33:26.073Z,85.14
2022-09-14T02:36:07.274Z,85.11
2022-09-14T02:39:14.725Z,85.82
2022-09-14T02:41:54.457Z,86.09
2022-09-14T02:44:53.804Z,86.13
2022-09-14T02:47:39.366Z,85.75
2022-09-14T02:50:24.360Z,85.75
2022-09-14T02:53:01.844Z,86.10
2022-09-14T02:55:42.971Z,85.96
2022-09-14T02:58:13.043Z,86.20
2022-09-14T03:00:49.085Z,86.83
2022-09-14T03:03:20.126Z,86.88
2022-09-14T03:05:47.572Z,86.95
2022-09-14T03:08:14.497Z,86.58
2022-09-14T03:10:44.201Z,86.26
2022-09-14T03:13:11.891Z,85.93
2022-09-14T03:15:39.108Z,86.20
2022-09-14T03:18:11.081Z,86.83
2022-09-14T03:20:39.324Z,87.02
2022-09-14T03:23:09.180Z,86.72
2022-09-14T03:25:44.455Z,86.83
2022-09-14T03:28:12.747Z,86.98
2022-09-14T03:30:39.755Z,86.53
2022-09-14T03:33:06.665Z,86.47
2022-09-14T03:35:33.582Z,86.24
2022-09-14T03:38:03.025Z,86.86
2022-09-14T03:40:30.419Z,87.24
2022-09-14T03:42:57.267Z,87.36
2022-09-14T03:45:23.910Z,86.81
2022-09-14T03:47:51.102Z,86.69
2022-09-14T03:50:20.065Z,86.26
2022-09-14T03:52:47.603Z,86.10
2022-09-14T03:55:14.574Z,85.96
2022-09-14T03:57:41.328Z,85.98
2022-09-14T04:00:09.181Z,85.56
2022-09-14T04:02:35.859Z,85.65
2022-09-14T04:05:02.764Z,85.81
2022-09-14T04:07:30.425Z,85.71
2022-09-14T04:09:57.305Z,86.11
2022-09-14T04:12:24.556Z,85.50
2022-09-14T04:14:51.430Z,85.90
2022-09-14T04:17:18.372Z,86.08
2022-09-14T04:19:45.081Z,87.80
2022-09-14T04:22:12.062Z,88.57
2022-09-14T04:24:39.107Z,88.88
2022-09-14T04:27:08.926Z,88.78
2022-09-14T04:29:35.601Z,88.69
2022-09-14T04:32:02.871Z,88.46
2022-09-14T04:34:29.582Z,88.06
2022-09-14T04:37:15.171Z,87.72
2022-09-14T04:39:43.397Z,88.02
2022-09-14T04:42:10.065Z,88.65
2022-09-14T04:44:36.661Z,88.82
2022-09-14T04:47:03.756Z,88.58
2022-09-14T04:49:30.952Z,88.33
2022-09-14T04:51:57.726Z,88.26
2022-09-14T04:54:25.158Z,88.21
2022-09-14T04:56:51.859Z,88.53
2022-09-14T04:59:18.553Z,88.63
2022-09-14T05:01:47.870Z,88.87
2022-09-14T05:04:15.997Z,89.10
2022-09-14T05:06:44.416Z,88.55
2022-09-14T05:09:15.868Z,88.85
2022-09-14T05:11:43.415Z,88.77
2022-09-14T05:14:13.330Z,89.17
2022-09-14T05:16:42.681Z,89.08
2022-09-14T05:19:14.531Z,89.38
2022-09-14T05:21:41.556Z,89.36
2022-09-14T05:24:14.941Z,89.76
2022-09-14T05:26:44.073Z,89.65
2022-09-14T05:29:18.183Z,89.83
2022-09-14T05:31:46.368Z,89.93
2022-09-14T05:34:13.607Z,90.03
2022-09-14T05:36:52.609Z,89.68
2022-09-14T05:39:23.127Z,90.27
2022-09-14T05:41:50.817Z,90.45
2022-09-14T05:44:17.986Z,90.75
2022-09-14T05:46:44.741Z,91.17
2022-09-14T05:49:11.336Z,91.30
2022-09-14T05:51:37.871Z,91.39
2022-09-14T05:54:10.246Z,91.41
2022-09-14T05:56:37.132Z,91.67
2022-09-14T05:59:04.175Z,91.84
2022-09-14T06:01:33.022Z,92.11
2022-09-14T06:04:02.521Z,91.84
2022-09-14T06:06:31.935Z,91.85
2022-09-14T06:09:00.678Z,91.73
2022-09-14T06:11:33.081Z,92.00
2022-09-14T06:14:00.472Z,92.24
2022-09-14T06:16:29.140Z,92.39
2022-09-14T06:18:58.959Z,92.36
2022-09-14T06:21:34.885Z,92.58
2022-09-14T06:24:01.609Z,92.68
2022-09-14T06:26:28.630Z,93.08
2022-09-14T06:28:55.533Z,93.16
2022-09-14T06:31:25.522Z,93.15
2022-09-14T06:33:53.829Z,92.80
2022-09-14T06:36:25.384Z,92.60
2022-09-14T06:38:54.512Z,92.23
2022-09-14T06:41:27.094Z,92.22
2022-09-14T06:43:57.192Z,92.01
2022-09-14T06:46:33.731Z,91.91
2022-09-14T06:49:11.905Z,91.88
2022-09-14T06:51:47.717Z,91.86
2022-09-14T06:54:16.536Z,91.63
2022-09-14T06:56:45.683Z,92.13
2022-09-14T06:59:15.456Z,91.34
2022-09-14T07:01:45.525Z,91.07
2022-09-14T07:04:12.990Z,90.87
2022-09-14T07:06:49.924Z,90.82
2022-09-14T07:09:19.664Z,90.51
2022-09-14T07:11:59.247Z,89.86
2022-09-14T07:14:30.362Z,89.79
2022-09-14T07:16:59.259Z,89.76
2022-09-14T07:19:26.197Z,89.95
2022-09-14T07:21:54.898Z,89.99
2022-09-14T07:24:21.888Z,90.33
2022-09-14T07:27:04.396Z,90.48
2022-09-14T07:29:37.723Z,90.15
2022-09-14T07:32:04.642Z,90.45
2022-09-14T07:34:31.596Z,90.07
2022-09-14T07:36:58.273Z,90.65
2022-09-14T07:39:25.232Z,90.35
2022-09-14T07:41:52.056Z,90.42
2022-09-14T07:44:18.843Z,90.61
2022-09-14T07:46:47.024Z,90.71
2022-09-14T07:49:16.627Z,90.76
2022-09-14T07:51:44.286Z,90.10
2022-09-14T07:54:16.935Z,89.61
2022-09-14T07:56:45.231Z,90.65
2022-09-14T08:02:01.590Z,89.75
2022-09-14T08:04:28.532Z,88.84
2022-09-14T08:06:55.321Z,89.34
2022-09-14T08:09:22.191Z,89.92
2022-09-14T08:11:49.044Z,89.91
2022-09-14T08:14:15.824Z,89.52
2022-09-14T08:16:42.766Z,89.05
2022-09-14T08:19:16.983Z,89.16
2022-09-14T08:21:47.071Z,89.91
2022-09-14T08:24:19.101Z,90.10
2022-09-14T08:26:53.869Z,89.17
2022-09-14T08:29:20.623Z,88.74
2022-09-14T08:31:51.486Z,88.74
2022-09-14T08:34:19.048Z,88.74
2022-09-14T08:36:47.692Z,88.38
2022-09-14T08:39:17.165Z,88.35
2022-09-14T08:41:44.124Z,88.61
2022-09-14T08:44:51.715Z,89.04
2022-09-14T08:47:28.858Z,88.68
2022-09-14T08:50:06.506Z,88.67
2022-09-14T08:52:44.014Z,87.66
2022-09-14T08:55:48.559Z,87.51
2022-09-14T08:58:47.609Z,87.06
2022-09-14T09:01:46.152Z,86.44
2022-09-14T09:04:31.783Z,85.73
2022-09-14T09:07:21.492Z,86.43
2022-09-14T09:09:56.503Z,86.22
2022-09-14T09:12:36.241Z,86.70
2022-09-14T09:15:37.324Z,86.93
2022-09-14T09:18:19.180Z,86.96
2022-09-14T09:21:04.702Z,86.18
2022-09-14T09:23:33.865Z,86.51
2022-09-14T09:26:09.704Z,86.51
2022-09-14T09:28:49.439Z,86.25
2022-09-14T09:31:20.234Z,85.94
2022-09-14T09:33:49.825Z,86.78
2022-09-14T09:36:18.598Z,86.34
2022-09-14T09:38:45.578Z,86.25
2022-09-14T09:41:24.745Z,86.33
2022-09-14T09:44:03.352Z,87.07
2022-09-14T09:46:35.293Z,87.34
2022-09-14T09:49:18.415Z,88.47
2022-09-14T09:51:46.326Z,88.42
2022-09-14T09:54:13.000Z,89.87
2022-09-14T09:56:51.961Z,90.44
2022-09-14T09:59:44.327Z,90.94
2022-09-14T10:02:30.098Z,91.39
2022-09-14T10:05:07.145Z,91.10
2022-09-14T10:07:40.992Z,91.39
2022-09-14T10:10:15.313Z,91.14
2022-09-14T10:12:54.909Z,90.75
2022-09-14T10:15:28.932Z,91.17
2022-09-14T10:18:12.267Z,91.14
2022-09-14T10:21:07.024Z,90.90
2022-09-14T10:23:38.703Z,89.99
2022-09-14T10:26:27.304Z,89.25
2022-09-14T10:28:55.175Z,89.66
2022-09-14T10:31:37.360Z,88.06
2022-09-14T10:34:20.653Z,89.52
2022-09-14T10:37:06.912Z,89.08
2022-09-14T10:39:52.706Z,89.63
2022-09-14T10:42:35.591Z,89.63
2022-09-14T10:45:20.624Z,88.23
2022-09-14T10:48:44.014Z,87.09
2022-09-14T10:51:35.331Z,87.04
2022-09-14T10:55:02.691Z,85.92
2022-09-14T10:58:25.787Z,84.87
2022-09-14T11:01:18.565Z,84.92
2022-09-14T11:04:25.138Z,84.34
2022-09-14T11:07:25.701Z,84.03
2022-09-14T11:10:39.395Z,83.92
2022-09-14T11:13:27.804Z,84.58
2022-09-14T11:16:47.724Z,85.25
2022-09-14T11:19:20.356Z,84.64
2022-09-14T11:22:42.266Z,83.40
2022-09-14T11:25:31.631Z,84.55
2022-09-14T11:28:07.172Z,84.30
2022-09-14T11:30:50.322Z,82.90
2022-09-14T11:33:38.211Z,82.79
2022-09-14T11:36:47.386Z,83.24
2022-09-14T11:39:24.794Z,82.92
2022-09-14T11:41:59.916Z,82.96
2022-09-14T11:44:38.624Z,82.99
2022-09-14T11:47:20.436Z,82.65
2022-09-14T11:50:24.052Z,81.44
2022-09-14T11:53:20.083Z,80.50
2022-09-14T11:55:50.753Z,81.10
2022-09-14T11:58:21.783Z,81.39
2022-09-14T12:01:04.040Z,81.20
2022-09-14T12:04:06.044Z,82.25
2022-09-14T12:06:35.673Z,81.99
2022-09-14T12:09:17.785Z,83.86
2022-09-14T12:11:46.409Z,82.63
2022-09-14T12:14:41.202Z,82.76
2022-09-14T12:17:39.943Z,79.51
2022-09-14T12:20:40.950Z,79.26
2022-09-14T12:23:42.046Z,79.54
2022-09-14T12:26:12.024Z,81.36
2022-09-14T12:28:56.802Z,81.00
2022-09-14T12:32:02.938Z,80.75
2022-09-14T12:34:33.282Z,80.53
2022-09-14T12:37:11.914Z,80.04
2022-09-14T12:39:38.950Z,79.82
2022-09-14T12:42:34.700Z,80.40
2022-09-14T12:46:03.985Z,80.86
2022-09-14T12:48:48.707Z,79.29
2022-09-14T12:51:34.776Z,81.12
2022-09-14T12:54:07.994Z,79.90
2022-09-14T12:56:40.800Z,79.30
2022-09-14T13:00:06.647Z,79.10
2022-09-14T13:03:00.839Z,77.62
2022-09-14T13:05:33.275Z,77.99
2022-09-14T13:08:01.024Z,77.19
2022-09-14T13:10:36.358Z,77.06
2022-09-14T13:13:17.766Z,76.37
2022-09-14T13:16:07.062Z,76.83
2022-09-14T13:18:37.586Z,76.75
2022-09-14T13:21:23.637Z,77.73
2022-09-14T13:23:51.345Z,78.15
2022-09-14T13:26:26.559Z,78.52
2022-09-14T13:28:58.655Z,79.19
2022-09-14T13:31:34.889Z,78.95
2022-09-14T13:34:05.613Z,78.91
2022-09-14T13:36:40.501Z,79.15
2022-09-14T13:39:30.237Z,77.99
2022-09-14T13:41:58.572Z,75.91
2022-09-14T13:44:33.618Z,77.67
2022-09-14T13:47:05.695Z,76.73
2022-09-14T13:49:36.237Z,77.85
2022-09-14T13:52:21.776Z,75.63
2022-09-14T13:55:21.570Z,76.46
2022-09-14T13:58:19.372Z,76.73
2022-09-14T14:01:03.992Z,76.40
2022-09-14T14:03:48.479Z,76.16
2022-09-14T14:06:30.199Z,78.67
2022-09-14T14:09:09.573Z,79.10
2022-09-14T14:11:52.359Z,80.63
2022-09-14T14:14:30.141Z,80.42
2022-09-14T14:17:13.128Z,81.15
2022-09-14T14:19:40.857Z,81.31
2022-09-14T14:22:27.693Z,83.37
2022-09-14T14:25:12.727Z,83.31
2022-09-14T14:27:46.832Z,83.80
2022-09-14T14:30:17.264Z,84.57
2022-09-14T14:32:48.901Z,84.87
2022-09-14T14:35:19.961Z,85.64
2022-09-14T14:37:47.762Z,86.17
2022-09-14T14:40:16.850Z,85.89
2022-09-14T14:42:44.795Z,85.89
2022-09-14T14:45:21.639Z,85.95
2022-09-14T14:47:53.187Z,87.80
2022-09-14T14:50:27.273Z,88.70
2022-09-14T14:52:54.596Z,90.83
2022-09-14T14:55:23.756Z,93.12
2022-09-14T14:57:51.980Z,94.53
2022-09-14T15:00:24.535Z,96.24
2022-09-14T15:02:51.537Z,96.06
2022-09-14T15:05:19.415Z,98.91
2022-09-14T15:07:46.846Z,100.00
2022-09-14T15:10:16.524Z,100.00
2022-09-14T15:12:44.515Z,100.00
2022-09-14T15:15:19.783Z,100.00
2022-09-14T15:17:46.668Z,100.00
2022-09-14T15:20:13.923Z,100.00
2022-09-14T15:22:42.394Z,100.00
2022-09-14T15:25:12.363Z,100.00
2022-09-14T15:27:45.446Z,100.00
2022-09-14T15:30:13.688Z,100.00
2022-09-14T15:32:41.188Z,100.00
2022-09-14T15:35:13.444Z,99.84
2022-09-14T15:37:41.184Z,100.00
2022-09-14T15:40:09.367Z,100.00
2022-09-14T15:42:36.029Z,100.00
2022-09-14T15:45:04.158Z,100.00
2022-09-14T15:47:34.175Z,100.00
2022-09-14T15:50:03.673Z,100.00
2022-09-14T15:52:30.255Z,100.00
2022-09-14T15:54:56.822Z,100.00
2022-09-14T15:57:23.393Z,100.00
2022-09-14T15:59:50.119Z,100.00
2022-09-14T16:02:20.250Z,100.00
2022-09-14T16:04:47.030Z,100.00
2022-09-14T16:07:14.184Z,100.00
2022-09-14T16:09:41.758Z,100.00
2022-09-14T16:12:11.154Z,100.00
2022-09-14T16:14:38.032Z,100.00
2022-09-14T16:17:06.765Z,100.00
2022-09-14T16:19:33.311Z,100.00
2022-09-14T16:22:00.485Z,100.00
2022-09-14T16:24:28.638Z,100.00
2022-09-14T16:27:14.220Z,100.00
2022-09-14T16:29:43.023Z,100.00
2022-09-14T16:32:09.838Z,100.00
2022-09-14T16:34:37.845Z,100.00
2022-09-14T16:37:04.560Z,100.00
2022-09-14T16:39:31.713Z,100.00
2022-09-14T16:41:59.857Z,100.00
2022-09-14T16:44:28.415Z,100.00
2022-09-14T16:46:57.691Z,99.69
2022-09-14T16:49:27.995Z,100.00
2022-09-14T16:51:56.290Z,100.00
2022-09-14T16:54:25.877Z,100.00
2022-09-14T16:56:57.226Z,99.01
2022-09-14T16:59:25.769Z,98.51
2022-09-14T17:01:55.064Z,97.45
2022-09-14T17:04:24.013Z,99.53
2022-09-14T17:06:52.738Z,99.79
2022-09-14T17:09:24.353Z,100.00
2022-09-14T17:11:52.769Z,99.32
2022-09-14T17:14:25.468Z,99.43
2022-09-14T17:16:52.365Z,99.86
2022-09-14T17:19:20.069Z,99.33
2022-09-14T17:21:48.124Z,99.05
2022-09-14T17:24:16.625Z,99.59
2022-09-14T17:26:45.599Z,99.54
2022-09-14T17:29:12.697Z,100.00
2022-09-14T17:31:42.718Z,100.00
2022-09-14T17:34:12.130Z,98.85
2022-09-14T17:36:39.185Z,98.67
2022-09-14T17:39:11.576Z,98.28
2022-09-14T17:41:40.405Z,98.59
2022-09-14T17:44:11.292Z,98.90
2022-09-14T17:46:45.959Z,98.64
2022-09-14T17:49:18.325Z,98.93
2022-09-14T17:51:45.668Z,99.20
2022-09-14T17:54:12.726Z,99.70
2022-09-14T17:56:39.899Z,98.37
2022-09-14T17:59:22.474Z,98.88
2022-09-14T18:01:50.091Z,98.01
2022-09-14T18:04:17.626Z,98.51
2022-09-14T18:06:49.861Z,97.88
2022-09-14T18:09:21.526Z,97.14
2022-09-14T18:11:50.422Z,97.94
2022-09-14T18:14:17.991Z,98.85
2022-09-14T18:16:45.480Z,98.30
2022-09-14T18:19:12.302Z,98.25
2022-09-14T18:21:39.603Z,97.27
2022-09-14T18:24:07.537Z,96.58
2022-09-14T18:26:34.341Z,98.27
2022-09-14T18:29:01.559Z,98.35
2022-09-14T18:31:28.726Z,98.89
2022-09-14T18:34:00.184Z,98.82
2022-09-14T18:36:29.401Z,97.15
2022-09-14T18:38:58.064Z,97.71
2022-09-14T18:41:25.465Z,98.15
2022-09-14T18:43:53.306Z,98.88
2022-09-14T18:46:24.436Z,98.56
2022-09-14T18:48:54.417Z,98.61
2022-09-14T18:51:22.103Z,97.30
2022-09-14T18:53:49.107Z,97.80
2022-09-14T18:56:17.929Z,97.68
2022-09-14T18:58:47.209Z,97.71
2022-09-14T19:01:14.942Z,97.92
2022-09-14T19:03:43.568Z,98.27
2022-09-14T19:06:14.785Z,97.93
2022-09-14T19:08:50.266Z,98.12
2022-09-14T19:11:21.533Z,97.79
2022-09-14T19:13:54.381Z,98.37
2022-09-14T19:16:21.009Z,98.09
2022-09-14T19:18:49.352Z,97.87
2022-09-14T19:21:23.415Z,97.86
2022-09-14T19:24:00.637Z,98.16
2022-09-14T19:26:33.147Z,98.20
2022-09-14T19:29:04.134Z,98.09
2022-09-14T19:31:31.591Z,98.21
2022-09-14T19:34:00.910Z,97.32
2022-09-14T19:36:29.458Z,97.45
2022-09-14T19:39:01.080Z,97.10
2022-09-14T19:41:28.907Z,97.49
2022-09-14T19:43:55.493Z,97.77
2022-09-14T19:46:23.424Z,97.71
2022-09-14T19:48:52.410Z,98.08
2022-09-14T19:51:25.454Z,98.05
2022-09-14T19:53:54.715Z,98.56
2022-09-14T19:56:33.059Z,99.06
2022-09-14T19:59:06.029Z,99.30
2022-09-14T20:01:36.520Z,99.25
2022-09-14T20:04:06.017Z,99.53
2022-09-14T20:06:37.979Z,99.87
2022-09-14T20:09:11.738Z,99.28
2022-09-14T20:11:41.222Z,99.81
2022-09-14T20:14:12.507Z,99.34
2022-09-14T20:16:49.965Z,99.62
2022-09-14T20:19:20.559Z,99.33
2022-09-14T20:21:49.754Z,98.82
2022-09-14T20:24:26.157Z,98.59
2022-09-14T20:27:13.976Z,98.31
2022-09-14T20:29:59.363Z,97.88
2022-09-14T20:32:28.163Z,98.56
2022-09-14T20:34:56.193Z,97.98
2022-09-14T20:37:22.986Z,97.33
2022-09-14T20:39:50.115Z,97.51
2022-09-14T20:42:17.287Z,97.57
2022-09-14T20:44:46.376Z,97.35
2022-09-14T20:47:13.395Z,97.49
2022-09-14T20:49:40.076Z,97.21
2022-09-14T20:52:06.753Z,97.62
2022-09-14T20:54:33.589Z,97.87
2022-09-14T20:57:04.633Z,98.21
2022-09-14T20:59:49.941Z,98.33
2022-09-14T21:02:16.639Z,97.72
2022-09-14T21:04:43.449Z,97.72
2022-09-14T21:07:17.761Z,98.01
2022-09-14T21:09:44.744Z,98.40
2022-09-14T21:12:14.007Z,99.27
2022-09-14T21:14:40.994Z,99.07
2022-09-14T21:17:09.227Z,99.07
2022-09-14T21:19:37.805Z,98.46
2022-09-14T21:22:04.723Z,98.42
2022-09-14T21:24:35.142Z,98.34
2022-09-14T21:27:07.690Z,98.41
2022-09-14T21:29:34.433Z,98.39
2022-09-14T21:32:05.602Z,98.36
2022-09-14T21:34:35.509Z,98.67
2022-09-14T21:37:02.374Z,98.04
2022-09-14T21:39:29.821Z,98.67
2022-09-14T21:41:59.368Z,98.84
2022-09-14T21:44:37.049Z,99.30
2022-09-14T21:47:06.236Z,99.04
2022-09-14T21:49:33.590Z,98.79
2022-09-14T21:52:04.253Z,99.28
2022-09-14T21:54:37.195Z,98.16
2022-09-14T21:57:04.266Z,98.53
2022-09-14T21:59:32.065Z,98.27
2022-09-14T22:01:59.141Z,98.53
2022-09-14T22:04:26.877Z,97.83
2022-09-14T22:06:53.888Z,97.70
2022-09-14T22:09:25.136Z,97.95
2022-09-14T22:11:53.127Z,98.11
2022-09-14T22:14:26.219Z,98.82
2022-09-14T22:16:53.859Z,98.52
2022-09-14T22:19:30.605Z,98.52
2022-09-14T22:21:59.645Z,98.17
2022-09-14T22:24:37.920Z,98.08
2022-09-14T22:27:14.618Z,97.88
2022-09-14T22:29:41.455Z,97.90
2022-09-14T22:32:12.246Z,97.56
2022-09-14T22:34:41.506Z,97.91
2022-09-14T22:37:08.316Z,98.17
2022-09-14T22:39:35.236Z,97.87
2022-09-14T22:42:03.530Z,98.33
2022-09-14T22:44:30.223Z,98.61
2022-09-14T22:47:01.931Z,98.47
2022-09-14T22:49:30.747Z,98.04
2022-09-14T22:51:57.372Z,97.67
2022-09-14T22:54:24.049Z,97.52
2022-09-14T22:56:51.087Z,97.67
2022-09-14T22:59:17.787Z,97.70
2022-09-14T23:01:44.940Z,97.00
2022-09-14T23:04:13.922Z,97.00
2022-09-14T23:06:47.559Z,96.96
2022-09-14T23:09:22.003Z,96.52
2022-09-14T23:11:49.563Z,96.48
2022-09-14T23:14:16.633Z,96.75
2022-09-14T23:16:45.194Z,96.18
2022-09-14T23:19:16.890Z,97.07
2022-09-14T23:21:44.177Z,96.79
2022-09-14T23:24:15.469Z,96.88
2022-09-14T23:26:42.853Z,96.69
2022-09-14T23:29:16.153Z,96.93
2022-09-14T23:31:43.879Z,97.58
2022-09-14T23:34:10.794Z,97.36
2022-09-14T23:36:37.587Z,96.35
2022-09-14T23:39:04.433Z,97.56
2022-09-14T23:41:31.400Z,97.22
2022-09-14T23:43:58.921Z,97.41
2022-09-14T23:46:25.737Z,97.62
2022-09-14T23:48:52.900Z,96.61
2022-09-14T23:51:19.952Z,96.59
2022-09-14T23:53:46.816Z,96.48
2022-09-14T23:56:14.433Z,96.27
2022-09-14T23:58:42.193Z,96.20
